Hlavní strana
METAR-TAF:

METAR-TAF

Letiště :

Port Stanley, Falklandy

zeměpisná šířka: 51-49S, zeměpisná délka: 058-27W, výška: 74 m

Aktuální stav počasí

Zpráva byla vytvořena před 1 hodinou a 6 minutami, v 07:50 UTC
Západní vítr 9 kt
Teplota 1°C
Vlhkost vzduchu 93%
Tlak 1013 hPa
Viditelnost 10 km a více
Skoro jasno ve výšce 1900 ft

METAR: EGYP 280750Z 26009KT 9999 FEW019 01/00 Q1013

Čas: 05:56 (08:56 UTC)

Předpověď počasí

Zpráva byla vytvořena před 1 hodinou a 9 minutami, v 07:47 UTC
Předpověď platná od 28 v 09 UTC do 29 v 03 UTC
Západojihozápadní vítr 12 kt
Viditelnost 10 km a více
Polojasno ve výšce 2500 ft
Pravděpodobnost 30% :
Dočasný
od 28 v 15 UTC do 28 v 18 UTC
Viditelnost: 7000 m
Polojasno ve výšce 1200 ft
slabé dešťové přeháňky
Dočasný
od 28 v 18 UTC do 28 v 24 UTC
Viditelnost: 4000 m
Polojasno ve výšce 500 ft
Oblačno až skoro zataženo ve výšce 900 ft
dešťové přeháňky

TAF: EGYP 280747Z 2809/2903 25012KT 9999 SCT025 PROB30 TEMPO 2815/2818 7000 -SHRA SCT012 TEMPO 2818/2824 4000 SHRA SCT005 BKN009

Stav a předpovědi počasí z více než 4 000 letišť (zprávy METAR a TAF).

Červené a žluté tečky na mapě představují dostupné meteorologické stanice.

Když kurzor umístíte na tečku, zobrazí se název stanice.

Pak kliknutím zobrazíte stav a předpověď počasí.

Chcete-li změnit mapu, kliknutím na zelené tlačítko se znaménkem +mapu přiblížíte, kliknutím na zelené tlačítko se znaménkem – mapu oddálíte a kliknutím na zelené šipky přejdete na sousední mapy.


METAR-TAF: